Aérodrome :
LOGIN :

S'inscrire | Disclaimer

   EN    FR    IT 

 










Légende :    VFR   VFR Marginal   IFR   IFR Intensif   IFR Très Intensif
Visi : 
Plafond : 
>= 8 km
>= 3000ft
5 à 8 km
1000 à 3000 ft
1500m à 5 km
500 à 1000 ft
800 à 1500m
200 à 500 ft
< 800m
< 200 ft
Symboles :   Orages  Brouillard  Fortes neiges  Fortes précipitations  Vent > 20 kt
SIGMETs :   Divers  Orages  Givrage  Turbulence  Onde Orograph.  Cendres Volcan.







- Altitude de l'aérodrome : 34 ft
- Code IATA : BLK
- Voir les cartes d'approche


EGNH - Blackpool

DERNIER METAR :
  • 231250Z 27008KT 9999 FEW020 BKN040 20/19 Q1015

METARs EXPIRÉS :
  • 231220Z 27009KT 9999 FEW015 BKN024 20/19 Q1015
  • 231150Z 26007KT 9999 BKN014 21/20 Q1015
  • 231120Z 23006KT 200V260 9999 FEW016 BKN031 21/20 Q1015
  • 231050Z 22007KT 9999 FEW010 BKN021 21/20 Q1015
  • 231020Z 19006KT 9999 FEW010 BKN026 21/20 Q1015

TAF TAF EGNH
Valide du 23 à 12h jusqu'au 23 à 20h UTC


231057Z 2312/2320 23006KT 9999 FEW010 SCT030
PROB30
TEMPO 2312/2320 6000 -RA BKN012
ATIS : +44 1253 343 434 (x8315)
Pas de NOTAMs connus pour ce terrain.



MET'MAP, la Météo Aéronautique d'un coup d'oeil ! - Copyright ORBIFLY Décembre 2007 - Disclaimer

ORBIFLY MET'MAP TEAM :

Programmation & Développement : Alexandra Zaïnal
Conception & Développement : Baudouin d'Aumeries
Co-Programmation & Développement : Marc-Olivier Méhu
Soutien technique & logistique : Manuel Goepfert

Contact : metmap@orbifly.com




SOURCES & CREDITS :

   NOAA